Terminal Aerodrome Forecast
Issued by NWS Charleston, WV

Current Version | Previous Version | Graphics & Text | Print | Product List | Glossary On
Versions: 1 2 3 4 5 6 7 8 9 10 11 12 13 14 15 16 17 18 19 20 21 22 23
000
FTUS41 KRLX 301700
TAFCRW
TAF
KCRW 301723Z 3018/0118 32011KT 6SM -SHRA BR BKN040 BKN090
      TEMPO 3019/3022 4SM -SHRA BR BKN025
     FM302200 31010G16KT 6SM BR BKN040
     FM010300 30006KT 5SM -SHRA BR OVC030
     FM010800 30005KT 4SM BR OVC015
     FM011000 32005KT 3SM BR OVC010
     FM011200 32005KT 6SM BR SCT012 BKN020
     FM011400 31004KT P6SM BKN025=

USA.gov is the U.S. government's official web portal to all federal, state and local government web resources and services.